sensor_id;sensor_type;location;lat;lon;timestamp;P1;durP1;ratioP1;P2;durP2;ratioP2
9056;SDS011;4563;54.756;9.400;2022-08-21T00:00:20;3.23;;;1.50;;
9056;SDS011;4563;54.756;9.400;2022-08-21T00:02:51;4.67;;;1.60;;
9056;SDS011;4563;54.756;9.400;2022-08-21T00:05:21;5.90;;;1.87;;
9056;SDS011;4563;54.756;9.400;2022-08-21T00:07:49;4.10;;;1.50;;
9056;SDS011;4563;54.756;9.400;2022-08-21T00:10:16;3.67;;;1.80;;
9056;SDS011;4563;54.756;9.400;2022-08-21T00:12:45;7.23;;;2.03;;
9056;SDS011;4563;54.756;9.400;2022-08-21T00:15:13;4.53;;;1.47;;
9056;SDS011;4563;54.756;9.400;2022-08-21T00:17:42;5.57;;;1.67;;
9056;SDS011;4563;54.756;9.400;2022-08-21T00:20:11;4.80;;;1.80;;
9056;SDS011;4563;54.756;9.400;2022-08-21T00:22:39;5.40;;;1.90;;
9056;SDS011;4563;54.756;9.400;2022-08-21T00:25:07;4.03;;;1.70;;
9056;SDS011;4563;54.756;9.400;2022-08-21T00:27:35;6.50;;;1.67;;
9056;SDS011;4563;54.756;9.400;2022-08-21T00:30:03;6.40;;;2.03;;
9056;SDS011;4563;54.756;9.400;2022-08-21T00:32:31;4.63;;;1.70;;
9056;SDS011;4563;54.756;9.400;2022-08-21T00:34:58;5.37;;;2.40;;
9056;SDS011;4563;54.756;9.400;2022-08-21T00:37:26;5.23;;;1.77;;
9056;SDS011;4563;54.756;9.400;2022-08-21T00:39:53;4.03;;;1.97;;
9056;SDS011;4563;54.756;9.400;2022-08-21T00:42:20;5.00;;;1.77;;
9056;SDS011;4563;54.756;9.400;2022-08-21T00:44:47;7.77;;;1.87;;
9056;SDS011;4563;54.756;9.400;2022-08-21T00:47:15;8.07;;;2.17;;
9056;SDS011;4563;54.756;9.400;2022-08-21T00:49:43;10.77;;;2.13;;
9056;SDS011;4563;54.756;9.400;2022-08-21T00:52:11;7.77;;;1.93;;
9056;SDS011;4563;54.756;9.400;2022-08-21T00:54:42;5.90;;;1.90;;
9056;SDS011;4563;54.756;9.400;2022-08-21T00:57:10;4.73;;;1.47;;
9056;SDS011;4563;54.756;9.400;2022-08-21T00:59:42;8.53;;;1.90;;
9056;SDS011;4563;54.756;9.400;2022-08-21T01:02:13;3.30;;;1.33;;
9056;SDS011;4563;54.756;9.400;2022-08-21T01:04:41;5.67;;;2.07;;
9056;SDS011;4563;54.756;9.400;2022-08-21T01:07:08;2.90;;;1.83;;
9056;SDS011;4563;54.756;9.400;2022-08-21T01:09:37;3.40;;;1.87;;
9056;SDS011;4563;54.756;9.400;2022-08-21T01:12:07;4.37;;;1.87;;
9056;SDS011;4563;54.756;9.400;2022-08-21T01:14:34;3.33;;;1.70;;
9056;SDS011;4563;54.756;9.400;2022-08-21T01:17:02;7.90;;;1.93;;
9056;SDS011;4563;54.756;9.400;2022-08-21T01:19:30;4.20;;;1.73;;
9056;SDS011;4563;54.756;9.400;2022-08-21T01:21:58;7.57;;;2.30;;
9056;SDS011;4563;54.756;9.400;2022-08-21T01:24:25;6.70;;;2.10;;
9056;SDS011;4563;54.756;9.400;2022-08-21T01:26:52;6.87;;;1.90;;
9056;SDS011;4563;54.756;9.400;2022-08-21T01:29:23;4.17;;;1.90;;
9056;SDS011;4563;54.756;9.400;2022-08-21T01:31:56;5.67;;;1.60;;
9056;SDS011;4563;54.756;9.400;2022-08-21T01:34:23;8.53;;;2.10;;
9056;SDS011;4563;54.756;9.400;2022-08-21T01:36:50;6.30;;;2.20;;
9056;SDS011;4563;54.756;9.400;2022-08-21T01:39:19;5.90;;;2.27;;
9056;SDS011;4563;54.756;9.400;2022-08-21T01:41:46;3.87;;;1.83;;
9056;SDS011;4563;54.756;9.400;2022-08-21T01:44:12;3.50;;;1.97;;
9056;SDS011;4563;54.756;9.400;2022-08-21T01:46:39;5.50;;;2.17;;
9056;SDS011;4563;54.756;9.400;2022-08-21T01:49:06;5.60;;;1.93;;
9056;SDS011;4563;54.756;9.400;2022-08-21T01:51:33;4.10;;;2.00;;
9056;SDS011;4563;54.756;9.400;2022-08-21T01:54:00;5.67;;;2.47;;
9056;SDS011;4563;54.756;9.400;2022-08-21T01:56:28;9.00;;;2.63;;
9056;SDS011;4563;54.756;9.400;2022-08-21T01:59:01;6.50;;;2.23;;
9056;SDS011;4563;54.756;9.400;2022-08-21T02:01:28;6.07;;;2.50;;
9056;SDS011;4563;54.756;9.400;2022-08-21T02:03:55;3.07;;;2.03;;
9056;SDS011;4563;54.756;9.400;2022-08-21T02:06:22;7.97;;;2.33;;
9056;SDS011;4563;54.756;9.400;2022-08-21T02:08:48;4.07;;;2.07;;
9056;SDS011;4563;54.756;9.400;2022-08-21T02:11:16;5.63;;;2.40;;
9056;SDS011;4563;54.756;9.400;2022-08-21T02:13:44;4.53;;;2.27;;
9056;SDS011;4563;54.756;9.400;2022-08-21T02:16:11;8.87;;;2.43;;
9056;SDS011;4563;54.756;9.400;2022-08-21T02:18:39;5.23;;;2.20;;
9056;SDS011;4563;54.756;9.400;2022-08-21T02:21:06;7.87;;;2.60;;
9056;SDS011;4563;54.756;9.400;2022-08-21T02:23:33;6.00;;;2.67;;
9056;SDS011;4563;54.756;9.400;2022-08-21T02:26:00;3.37;;;2.03;;
9056;SDS011;4563;54.756;9.400;2022-08-21T02:28:29;9.90;;;4.50;;
9056;SDS011;4563;54.756;9.400;2022-08-21T02:30:57;5.20;;;2.47;;
9056;SDS011;4563;54.756;9.400;2022-08-21T02:33:25;3.13;;;1.90;;
9056;SDS011;4563;54.756;9.400;2022-08-21T02:35:53;6.73;;;2.50;;
9056;SDS011;4563;54.756;9.400;2022-08-21T02:38:20;6.87;;;2.67;;
9056;SDS011;4563;54.756;9.400;2022-08-21T02:40:49;4.07;;;2.23;;
9056;SDS011;4563;54.756;9.400;2022-08-21T02:43:17;5.83;;;2.40;;
9056;SDS011;4563;54.756;9.400;2022-08-21T02:45:45;7.60;;;2.20;;
9056;SDS011;4563;54.756;9.400;2022-08-21T02:48:15;6.27;;;2.57;;
9056;SDS011;4563;54.756;9.400;2022-08-21T02:50:44;5.90;;;2.40;;
9056;SDS011;4563;54.756;9.400;2022-08-21T02:53:14;7.30;;;2.00;;
9056;SDS011;4563;54.756;9.400;2022-08-21T02:55:42;5.47;;;2.60;;
9056;SDS011;4563;54.756;9.400;2022-08-21T02:58:11;5.13;;;2.20;;
9056;SDS011;4563;54.756;9.400;2022-08-21T03:00:40;8.50;;;3.63;;
9056;SDS011;4563;54.756;9.400;2022-08-21T03:03:07;4.67;;;2.40;;
9056;SDS011;4563;54.756;9.400;2022-08-21T03:05:35;8.17;;;2.93;;
9056;SDS011;4563;54.756;9.400;2022-08-21T03:08:03;4.27;;;2.10;;
9056;SDS011;4563;54.756;9.400;2022-08-21T03:10:35;4.27;;;2.60;;
9056;SDS011;4563;54.756;9.400;2022-08-21T03:13:04;8.90;;;3.30;;
9056;SDS011;4563;54.756;9.400;2022-08-21T03:15:32;9.00;;;3.23;;
9056;SDS011;4563;54.756;9.400;2022-08-21T03:17:59;6.13;;;2.57;;
9056;SDS011;4563;54.756;9.400;2022-08-21T03:20:27;9.53;;;2.47;;
9056;SDS011;4563;54.756;9.400;2022-08-21T03:22:58;6.43;;;2.73;;
9056;SDS011;4563;54.756;9.400;2022-08-21T03:25:26;6.73;;;3.23;;
9056;SDS011;4563;54.756;9.400;2022-08-21T03:27:53;6.10;;;2.97;;
9056;SDS011;4563;54.756;9.400;2022-08-21T03:30:20;8.87;;;2.73;;
9056;SDS011;4563;54.756;9.400;2022-08-21T03:32:48;4.60;;;2.80;;
9056;SDS011;4563;54.756;9.400;2022-08-21T03:35:15;3.97;;;2.80;;
9056;SDS011;4563;54.756;9.400;2022-08-21T03:37:43;6.03;;;2.87;;
9056;SDS011;4563;54.756;9.400;2022-08-21T03:40:12;8.13;;;3.17;;
9056;SDS011;4563;54.756;9.400;2022-08-21T03:42:41;5.93;;;3.30;;
9056;SDS011;4563;54.756;9.400;2022-08-21T03:45:09;6.43;;;2.90;;
9056;SDS011;4563;54.756;9.400;2022-08-21T03:47:36;5.50;;;2.73;;
9056;SDS011;4563;54.756;9.400;2022-08-21T03:50:03;5.90;;;3.60;;
9056;SDS011;4563;54.756;9.400;2022-08-21T03:52:31;7.07;;;3.23;;
9056;SDS011;4563;54.756;9.400;2022-08-21T03:54:58;9.20;;;3.33;;
9056;SDS011;4563;54.756;9.400;2022-08-21T03:57:26;7.70;;;3.47;;
9056;SDS011;4563;54.756;9.400;2022-08-21T03:59:53;6.20;;;3.37;;
9056;SDS011;4563;54.756;9.400;2022-08-21T04:02:20;8.80;;;3.50;;
9056;SDS011;4563;54.756;9.400;2022-08-21T04:04:47;6.00;;;3.47;;
9056;SDS011;4563;54.756;9.400;2022-08-21T04:07:14;4.83;;;3.13;;
9056;SDS011;4563;54.756;9.400;2022-08-21T04:09:41;8.97;;;3.33;;
9056;SDS011;4563;54.756;9.400;2022-08-21T04:12:07;6.27;;;3.43;;
9056;SDS011;4563;54.756;9.400;2022-08-21T04:14:36;5.47;;;2.77;;
9056;SDS011;4563;54.756;9.400;2022-08-21T04:17:03;6.07;;;3.70;;
9056;SDS011;4563;54.756;9.400;2022-08-21T04:19:30;3.80;;;2.53;;
9056;SDS011;4563;54.756;9.400;2022-08-21T04:21:57;7.20;;;3.23;;
9056;SDS011;4563;54.756;9.400;2022-08-21T04:24:24;7.00;;;3.07;;
9056;SDS011;4563;54.756;9.400;2022-08-21T04:26:50;6.97;;;3.30;;
9056;SDS011;4563;54.756;9.400;2022-08-21T04:29:17;7.80;;;2.90;;
9056;SDS011;4563;54.756;9.400;2022-08-21T04:31:46;5.90;;;3.30;;
9056;SDS011;4563;54.756;9.400;2022-08-21T04:34:13;7.97;;;3.50;;
9056;SDS011;4563;54.756;9.400;2022-08-21T04:36:40;9.60;;;4.03;;
9056;SDS011;4563;54.756;9.400;2022-08-21T04:39:06;6.87;;;3.93;;
9056;SDS011;4563;54.756;9.400;2022-08-21T04:41:33;7.43;;;4.27;;
9056;SDS011;4563;54.756;9.400;2022-08-21T04:44:01;5.47;;;3.23;;
9056;SDS011;4563;54.756;9.400;2022-08-21T04:46:28;9.60;;;4.10;;
9056;SDS011;4563;54.756;9.400;2022-08-21T04:48:57;6.17;;;3.30;;
9056;SDS011;4563;54.756;9.400;2022-08-21T04:51:24;9.60;;;3.37;;
9056;SDS011;4563;54.756;9.400;2022-08-21T04:53:56;4.87;;;3.53;;
9056;SDS011;4563;54.756;9.400;2022-08-21T04:56:31;4.03;;;3.37;;
9056;SDS011;4563;54.756;9.400;2022-08-21T04:59:02;5.80;;;3.67;;
9056;SDS011;4563;54.756;9.400;2022-08-21T05:01:34;7.30;;;3.47;;
9056;SDS011;4563;54.756;9.400;2022-08-21T05:04:07;6.67;;;3.47;;
9056;SDS011;4563;54.756;9.400;2022-08-21T05:06:36;6.37;;;3.70;;
9056;SDS011;4563;54.756;9.400;2022-08-21T05:09:07;13.23;;;4.07;;
9056;SDS011;4563;54.756;9.400;2022-08-21T05:11:35;7.17;;;4.47;;
9056;SDS011;4563;54.756;9.400;2022-08-21T05:14:02;7.73;;;3.83;;
9056;SDS011;4563;54.756;9.400;2022-08-21T05:16:30;6.87;;;3.77;;
9056;SDS011;4563;54.756;9.400;2022-08-21T05:18:56;5.83;;;3.70;;
9056;SDS011;4563;54.756;9.400;2022-08-21T05:21:25;6.67;;;4.03;;
9056;SDS011;4563;54.756;9.400;2022-08-21T05:23:52;6.03;;;3.77;;
9056;SDS011;4563;54.756;9.400;2022-08-21T05:26:18;5.53;;;3.33;;
9056;SDS011;4563;54.756;9.400;2022-08-21T05:28:45;9.60;;;3.93;;
9056;SDS011;4563;54.756;9.400;2022-08-21T05:31:13;8.27;;;4.10;;
9056;SDS011;4563;54.756;9.400;2022-08-21T05:33:39;7.83;;;3.67;;
9056;SDS011;4563;54.756;9.400;2022-08-21T05:36:06;8.27;;;3.90;;
9056;SDS011;4563;54.756;9.400;2022-08-21T05:38:35;3.80;;;3.23;;
9056;SDS011;4563;54.756;9.400;2022-08-21T05:41:02;5.17;;;3.43;;
9056;SDS011;4563;54.756;9.400;2022-08-21T05:43:28;8.00;;;3.30;;
9056;SDS011;4563;54.756;9.400;2022-08-21T05:45:57;7.43;;;3.33;;
9056;SDS011;4563;54.756;9.400;2022-08-21T05:48:24;5.23;;;2.90;;
9056;SDS011;4563;54.756;9.400;2022-08-21T05:50:51;6.70;;;3.10;;
9056;SDS011;4563;54.756;9.400;2022-08-21T05:53:19;7.20;;;3.87;;
9056;SDS011;4563;54.756;9.400;2022-08-21T05:55:50;9.97;;;5.57;;
9056;SDS011;4563;54.756;9.400;2022-08-21T05:58:18;4.43;;;3.40;;
9056;SDS011;4563;54.756;9.400;2022-08-21T06:00:48;5.97;;;3.37;;
9056;SDS011;4563;54.756;9.400;2022-08-21T06:03:17;4.53;;;3.27;;
9056;SDS011;4563;54.756;9.400;2022-08-21T06:05:45;6.30;;;3.30;;
9056;SDS011;4563;54.756;9.400;2022-08-21T06:08:12;8.67;;;4.03;;
9056;SDS011;4563;54.756;9.400;2022-08-21T06:10:40;10.47;;;3.77;;
9056;SDS011;4563;54.756;9.400;2022-08-21T06:13:09;11.90;;;3.47;;
9056;SDS011;4563;54.756;9.400;2022-08-21T06:15:36;5.27;;;3.07;;
9056;SDS011;4563;54.756;9.400;2022-08-21T06:18:04;10.67;;;3.43;;
9056;SDS011;4563;54.756;9.400;2022-08-21T06:20:31;5.77;;;3.80;;
9056;SDS011;4563;54.756;9.400;2022-08-21T06:22:58;6.20;;;3.43;;
9056;SDS011;4563;54.756;9.400;2022-08-21T06:25:26;10.40;;;3.93;;
9056;SDS011;4563;54.756;9.400;2022-08-21T06:27:59;6.70;;;3.23;;
9056;SDS011;4563;54.756;9.400;2022-08-21T06:30:28;8.10;;;3.30;;
9056;SDS011;4563;54.756;9.400;2022-08-21T06:32:55;6.70;;;3.07;;
9056;SDS011;4563;54.756;9.400;2022-08-21T06:35:22;6.23;;;2.43;;
9056;SDS011;4563;54.756;9.400;2022-08-21T06:37:49;5.27;;;2.30;;
9056;SDS011;4563;54.756;9.400;2022-08-21T06:40:16;4.07;;;2.00;;
9056;SDS011;4563;54.756;9.400;2022-08-21T06:42:43;7.80;;;2.33;;
9056;SDS011;4563;54.756;9.400;2022-08-21T06:45:10;5.63;;;2.10;;
9056;SDS011;4563;54.756;9.400;2022-08-21T06:47:40;7.80;;;1.90;;
9056;SDS011;4563;54.756;9.400;2022-08-21T06:50:08;5.03;;;2.23;;
9056;SDS011;4563;54.756;9.400;2022-08-21T06:52:35;3.00;;;2.10;;
9056;SDS011;4563;54.756;9.400;2022-08-21T06:55:03;4.60;;;1.93;;
9056;SDS011;4563;54.756;9.400;2022-08-21T06:57:32;4.13;;;1.97;;
9056;SDS011;4563;54.756;9.400;2022-08-21T07:00:00;5.30;;;1.90;;
9056;SDS011;4563;54.756;9.400;2022-08-21T07:02:27;6.80;;;1.83;;
9056;SDS011;4563;54.756;9.400;2022-08-21T07:04:56;4.87;;;1.47;;
9056;SDS011;4563;54.756;9.400;2022-08-21T07:07:24;10.53;;;1.57;;
9056;SDS011;4563;54.756;9.400;2022-08-21T07:09:51;5.50;;;1.33;;
9056;SDS011;4563;54.756;9.400;2022-08-21T07:12:18;9.60;;;1.73;;
9056;SDS011;4563;54.756;9.400;2022-08-21T07:14:45;5.57;;;1.67;;
9056;SDS011;4563;54.756;9.400;2022-08-21T07:17:13;5.97;;;1.07;;
9056;SDS011;4563;54.756;9.400;2022-08-21T07:19:40;4.37;;;1.30;;
9056;SDS011;4563;54.756;9.400;2022-08-21T07:22:08;4.67;;;1.20;;
9056;SDS011;4563;54.756;9.400;2022-08-21T07:24:35;3.90;;;0.80;;
9056;SDS011;4563;54.756;9.400;2022-08-21T07:27:02;2.77;;;0.70;;
9056;SDS011;4563;54.756;9.400;2022-08-21T07:29:31;5.27;;;0.80;;
9056;SDS011;4563;54.756;9.400;2022-08-21T07:31:57;2.30;;;0.80;;
9056;SDS011;4563;54.756;9.400;2022-08-21T07:34:24;2.17;;;0.60;;
9056;SDS011;4563;54.756;9.400;2022-08-21T07:36:51;2.67;;;0.67;;
9056;SDS011;4563;54.756;9.400;2022-08-21T07:39:19;2.60;;;0.80;;
9056;SDS011;4563;54.756;9.400;2022-08-21T07:41:46;4.67;;;1.00;;
9056;SDS011;4563;54.756;9.400;2022-08-21T07:44:14;2.37;;;0.87;;
9056;SDS011;4563;54.756;9.400;2022-08-21T07:46:41;3.30;;;1.10;;
9056;SDS011;4563;54.756;9.400;2022-08-21T07:49:08;3.40;;;0.90;;
9056;SDS011;4563;54.756;9.400;2022-08-21T07:51:35;3.50;;;0.90;;
9056;SDS011;4563;54.756;9.400;2022-08-21T07:54:01;2.60;;;1.03;;
9056;SDS011;4563;54.756;9.400;2022-08-21T07:56:30;1.60;;;0.90;;
9056;SDS011;4563;54.756;9.400;2022-08-21T07:58:57;3.30;;;0.80;;
9056;SDS011;4563;54.756;9.400;2022-08-21T08:01:24;3.73;;;1.13;;
9056;SDS011;4563;54.756;9.400;2022-08-21T08:03:51;3.17;;;0.70;;
9056;SDS011;4563;54.756;9.400;2022-08-21T08:06:18;2.27;;;0.80;;
9056;SDS011;4563;54.756;9.400;2022-08-21T08:08:45;1.83;;;0.83;;
9056;SDS011;4563;54.756;9.400;2022-08-21T08:11:12;7.70;;;4.50;;
9056;SDS011;4563;54.756;9.400;2022-08-21T08:13:43;6.93;;;1.13;;
9056;SDS011;4563;54.756;9.400;2022-08-21T08:16:11;3.83;;;1.10;;
9056;SDS011;4563;54.756;9.400;2022-08-21T08:18:38;3.60;;;0.90;;
9056;SDS011;4563;54.756;9.400;2022-08-21T08:21:06;3.27;;;0.90;;
9056;SDS011;4563;54.756;9.400;2022-08-21T08:23:34;4.57;;;0.80;;
9056;SDS011;4563;54.756;9.400;2022-08-21T08:26:01;4.33;;;1.40;;
9056;SDS011;4563;54.756;9.400;2022-08-21T08:28:31;3.37;;;0.90;;
9056;SDS011;4563;54.756;9.400;2022-08-21T08:31:00;4.63;;;1.07;;
9056;SDS011;4563;54.756;9.400;2022-08-21T08:33:27;5.37;;;1.10;;
9056;SDS011;4563;54.756;9.400;2022-08-21T08:35:54;5.60;;;1.20;;
9056;SDS011;4563;54.756;9.400;2022-08-21T08:38:22;4.97;;;1.27;;
9056;SDS011;4563;54.756;9.400;2022-08-21T08:40:52;6.60;;;0.90;;
9056;SDS011;4563;54.756;9.400;2022-08-21T08:43:26;4.60;;;0.90;;
9056;SDS011;4563;54.756;9.400;2022-08-21T08:45:55;6.43;;;1.17;;
9056;SDS011;4563;54.756;9.400;2022-08-21T08:48:36;4.13;;;1.13;;
9056;SDS011;4563;54.756;9.400;2022-08-21T08:51:13;7.37;;;1.00;;
9056;SDS011;4563;54.756;9.400;2022-08-21T08:53:46;4.67;;;0.93;;
9056;SDS011;4563;54.756;9.400;2022-08-21T08:56:18;6.57;;;1.33;;
9056;SDS011;4563;54.756;9.400;2022-08-21T08:58:48;4.83;;;1.03;;
9056;SDS011;4563;54.756;9.400;2022-08-21T09:01:19;2.50;;;0.53;;
9056;SDS011;4563;54.756;9.400;2022-08-21T09:03:47;2.57;;;0.97;;
9056;SDS011;4563;54.756;9.400;2022-08-21T09:06:19;4.07;;;0.80;;
9056;SDS011;4563;54.756;9.400;2022-08-21T09:09:02;11.07;;;1.30;;
9056;SDS011;4563;54.756;9.400;2022-08-21T09:11:39;3.63;;;0.90;;
9056;SDS011;4563;54.756;9.400;2022-08-21T09:14:14;3.00;;;0.60;;
9056;SDS011;4563;54.756;9.400;2022-08-21T09:16:53;3.40;;;1.07;;
9056;SDS011;4563;54.756;9.400;2022-08-21T09:19:33;4.20;;;0.90;;
9056;SDS011;4563;54.756;9.400;2022-08-21T09:22:14;2.03;;;0.80;;
9056;SDS011;4563;54.756;9.400;2022-08-21T09:24:56;9.27;;;0.80;;
9056;SDS011;4563;54.756;9.400;2022-08-21T09:27:32;4.40;;;0.80;;
9056;SDS011;4563;54.756;9.400;2022-08-21T09:30:00;6.17;;;1.10;;
9056;SDS011;4563;54.756;9.400;2022-08-21T09:32:29;6.43;;;1.00;;
9056;SDS011;4563;54.756;9.400;2022-08-21T09:34:58;3.70;;;0.80;;
9056;SDS011;4563;54.756;9.400;2022-08-21T09:37:27;2.17;;;0.70;;
9056;SDS011;4563;54.756;9.400;2022-08-21T09:39:56;3.00;;;0.73;;
9056;SDS011;4563;54.756;9.400;2022-08-21T09:42:26;1.17;;;0.70;;
9056;SDS011;4563;54.756;9.400;2022-08-21T09:45:11;2.25;;;0.60;;
9056;SDS011;4563;54.756;9.400;2022-08-21T09:47:42;4.65;;;0.85;;
9056;SDS011;4563;54.756;9.400;2022-08-21T09:50:11;1.63;;;0.70;;
9056;SDS011;4563;54.756;9.400;2022-08-21T09:52:44;2.63;;;0.60;;
9056;SDS011;4563;54.756;9.400;2022-08-21T09:55:18;3.65;;;0.60;;
9056;SDS011;4563;54.756;9.400;2022-08-21T09:58:06;1.15;;;0.30;;
9056;SDS011;4563;54.756;9.400;2022-08-21T10:00:34;3.38;;;0.50;;
9056;SDS011;4563;54.756;9.400;2022-08-21T10:03:12;0.80;;;0.43;;
9056;SDS011;4563;54.756;9.400;2022-08-21T10:05:50;0.40;;;0.40;;
9056;SDS011;4563;54.756;9.400;2022-08-21T10:08:19;2.75;;;0.70;;
9056;SDS011;4563;54.756;9.400;2022-08-21T10:10:49;2.40;;;0.47;;
9056;SDS011;4563;54.756;9.400;2022-08-21T10:13:21;2.72;;;0.80;;
9056;SDS011;4563;54.756;9.400;2022-08-21T10:15:57;2.72;;;0.70;;
9056;SDS011;4563;54.756;9.400;2022-08-21T10:18:33;3.35;;;0.70;;
9056;SDS011;4563;54.756;9.400;2022-08-21T10:21:07;2.50;;;0.45;;
9056;SDS011;4563;54.756;9.400;2022-08-21T10:23:44;1.60;;;0.50;;
9056;SDS011;4563;54.756;9.400;2022-08-21T10:26:29;2.78;;;0.60;;
9056;SDS011;4563;54.756;9.400;2022-08-21T10:29:05;2.05;;;0.60;;
9056;SDS011;4563;54.756;9.400;2022-08-21T10:31:42;3.80;;;0.90;;
9056;SDS011;4563;54.756;9.400;2022-08-21T10:34:24;4.38;;;0.60;;
9056;SDS011;4563;54.756;9.400;2022-08-21T10:37:03;0.63;;;0.40;;
9056;SDS011;4563;54.756;9.400;2022-08-21T10:39:43;0.98;;;0.40;;
9056;SDS011;4563;54.756;9.400;2022-08-21T10:42:20;11.50;;;0.70;;
9056;SDS011;4563;54.756;9.400;2022-08-21T10:45:00;1.08;;;0.40;;
9056;SDS011;4563;54.756;9.400;2022-08-21T10:47:37;1.80;;;0.50;;
9056;SDS011;4563;54.756;9.400;2022-08-21T10:50:13;5.10;;;0.70;;
9056;SDS011;4563;54.756;9.400;2022-08-21T10:52:56;3.13;;;0.50;;
9056;SDS011;4563;54.756;9.400;2022-08-21T10:55:32;2.13;;;0.65;;
9056;SDS011;4563;54.756;9.400;2022-08-21T10:58:04;1.70;;;0.57;;
9056;SDS011;4563;54.756;9.400;2022-08-21T11:00:48;4.72;;;0.63;;
9056;SDS011;4563;54.756;9.400;2022-08-21T11:03:20;2.67;;;0.75;;
9056;SDS011;4563;54.756;9.400;2022-08-21T11:05:53;1.63;;;0.50;;
9056;SDS011;4563;54.756;9.400;2022-08-21T11:08:26;1.88;;;0.63;;
9056;SDS011;4563;54.756;9.400;2022-08-21T11:10:59;1.40;;;0.70;;
9056;SDS011;4563;54.756;9.400;2022-08-21T11:13:30;3.25;;;0.70;;
9056;SDS011;4563;54.756;9.400;2022-08-21T11:16:05;1.48;;;0.60;;
9056;SDS011;4563;54.756;9.400;2022-08-21T11:18:37;3.17;;;0.73;;
9056;SDS011;4563;54.756;9.400;2022-08-21T11:21:13;2.38;;;0.80;;
9056;SDS011;4563;54.756;9.400;2022-08-21T11:24:02;2.25;;;0.80;;
9056;SDS011;4563;54.756;9.400;2022-08-21T11:26:41;3.13;;;0.60;;
9056;SDS011;4563;54.756;9.400;2022-08-21T11:29:11;3.00;;;0.70;;
9056;SDS011;4563;54.756;9.400;2022-08-21T11:31:49;1.50;;;0.50;;
9056;SDS011;4563;54.756;9.400;2022-08-21T11:34:28;3.30;;;0.70;;
9056;SDS011;4563;54.756;9.400;2022-08-21T11:37:15;2.40;;;0.60;;
9056;SDS011;4563;54.756;9.400;2022-08-21T11:39:50;2.80;;;0.68;;
9056;SDS011;4563;54.756;9.400;2022-08-21T11:42:24;2.53;;;0.80;;
9056;SDS011;4563;54.756;9.400;2022-08-21T11:45:08;3.70;;;1.17;;
9056;SDS011;4563;54.756;9.400;2022-08-21T11:47:46;5.38;;;0.80;;
9056;SDS011;4563;54.756;9.400;2022-08-21T11:50:20;3.45;;;1.10;;
9056;SDS011;4563;54.756;9.400;2022-08-21T11:52:54;2.67;;;0.80;;
9056;SDS011;4563;54.756;9.400;2022-08-21T11:55:27;4.10;;;1.05;;
9056;SDS011;4563;54.756;9.400;2022-08-21T11:57:58;3.85;;;1.00;;
9056;SDS011;4563;54.756;9.400;2022-08-21T12:00:31;2.42;;;0.52;;
9056;SDS011;4563;54.756;9.400;2022-08-21T12:03:06;3.70;;;0.90;;
9056;SDS011;4563;54.756;9.400;2022-08-21T12:05:37;5.28;;;1.17;;
9056;SDS011;4563;54.756;9.400;2022-08-21T12:08:11;3.60;;;1.10;;
9056;SDS011;4563;54.756;9.400;2022-08-21T12:10:41;3.15;;;0.90;;
9056;SDS011;4563;54.756;9.400;2022-08-21T12:13:25;2.72;;;0.60;;
9056;SDS011;4563;54.756;9.400;2022-08-21T12:16:04;7.13;;;1.20;;
9056;SDS011;4563;54.756;9.400;2022-08-21T12:18:32;4.10;;;0.73;;
9056;SDS011;4563;54.756;9.400;2022-08-21T12:21:01;4.82;;;1.33;;
9056;SDS011;4563;54.756;9.400;2022-08-21T12:23:33;6.40;;;0.93;;
9056;SDS011;4563;54.756;9.400;2022-08-21T12:26:13;5.97;;;1.10;;
9056;SDS011;4563;54.756;9.400;2022-08-21T12:29:04;6.25;;;0.90;;
9056;SDS011;4563;54.756;9.400;2022-08-21T12:31:50;3.20;;;0.85;;
9056;SDS011;4563;54.756;9.400;2022-08-21T12:34:20;4.25;;;0.95;;
9056;SDS011;4563;54.756;9.400;2022-08-21T12:36:49;6.80;;;1.15;;
9056;SDS011;4563;54.756;9.400;2022-08-21T12:39:24;3.55;;;1.25;;
9056;SDS011;4563;54.756;9.400;2022-08-21T12:42:00;5.80;;;1.27;;
9056;SDS011;4563;54.756;9.400;2022-08-21T12:44:34;4.63;;;1.20;;
9056;SDS011;4563;54.756;9.400;2022-08-21T12:47:11;4.32;;;1.00;;
9056;SDS011;4563;54.756;9.400;2022-08-21T12:49:43;5.45;;;1.38;;
9056;SDS011;4563;54.756;9.400;2022-08-21T12:52:28;4.15;;;1.20;;
9056;SDS011;4563;54.756;9.400;2022-08-21T12:55:00;8.27;;;1.17;;
9056;SDS011;4563;54.756;9.400;2022-08-21T12:57:27;9.95;;;1.20;;
9056;SDS011;4563;54.756;9.400;2022-08-21T12:59:55;4.72;;;1.20;;
9056;SDS011;4563;54.756;9.400;2022-08-21T13:02:25;6.45;;;1.30;;
9056;SDS011;4563;54.756;9.400;2022-08-21T13:04:55;3.17;;;1.20;;
9056;SDS011;4563;54.756;9.400;2022-08-21T13:07:25;4.95;;;1.20;;
9056;SDS011;4563;54.756;9.400;2022-08-21T13:09:57;6.82;;;1.02;;
9056;SDS011;4563;54.756;9.400;2022-08-21T13:12:27;8.73;;;1.33;;
9056;SDS011;4563;54.756;9.400;2022-08-21T13:14:56;6.63;;;1.73;;
9056;SDS011;4563;54.756;9.400;2022-08-21T13:17:25;10.80;;;1.23;;
9056;SDS011;4563;54.756;9.400;2022-08-21T13:19:54;7.45;;;1.30;;
9056;SDS011;4563;54.756;9.400;2022-08-21T13:22:23;9.95;;;1.38;;
9056;SDS011;4563;54.756;9.400;2022-08-21T13:24:51;4.97;;;1.10;;
9056;SDS011;4563;54.756;9.400;2022-08-21T13:27:21;5.43;;;1.23;;
9056;SDS011;4563;54.756;9.400;2022-08-21T13:30:00;6.40;;;1.35;;
9056;SDS011;4563;54.756;9.400;2022-08-21T13:32:32;3.75;;;1.00;;
9056;SDS011;4563;54.756;9.400;2022-08-21T13:35:07;3.67;;;1.15;;
9056;SDS011;4563;54.756;9.400;2022-08-21T13:37:37;3.78;;;1.05;;
9056;SDS011;4563;54.756;9.400;2022-08-21T13:40:06;8.00;;;1.10;;
9056;SDS011;4563;54.756;9.400;2022-08-21T13:42:40;5.53;;;1.20;;
9056;SDS011;4563;54.756;9.400;2022-08-21T13:45:11;6.95;;;1.33;;
9056;SDS011;4563;54.756;9.400;2022-08-21T13:47:45;3.83;;;1.23;;
9056;SDS011;4563;54.756;9.400;2022-08-21T13:50:14;5.07;;;1.00;;
9056;SDS011;4563;54.756;9.400;2022-08-21T13:52:53;5.50;;;1.02;;
9056;SDS011;4563;54.756;9.400;2022-08-21T13:55:23;6.78;;;1.13;;
9056;SDS011;4563;54.756;9.400;2022-08-21T13:57:59;6.45;;;1.25;;
9056;SDS011;4563;54.756;9.400;2022-08-21T14:00:28;5.78;;;1.20;;
9056;SDS011;4563;54.756;9.400;2022-08-21T14:03:00;5.97;;;1.20;;
9056;SDS011;4563;54.756;9.400;2022-08-21T14:05:33;5.50;;;1.73;;
9056;SDS011;4563;54.756;9.400;2022-08-21T14:08:04;4.22;;;1.23;;
9056;SDS011;4563;54.756;9.400;2022-08-21T14:10:35;6.43;;;1.10;;
9056;SDS011;4563;54.756;9.400;2022-08-21T14:13:14;4.18;;;1.13;;
9056;SDS011;4563;54.756;9.400;2022-08-21T14:15:56;2.83;;;1.00;;
9056;SDS011;4563;54.756;9.400;2022-08-21T14:18:24;6.30;;;1.10;;
9056;SDS011;4563;54.756;9.400;2022-08-21T14:20:52;7.20;;;1.30;;
9056;SDS011;4563;54.756;9.400;2022-08-21T14:23:30;2.65;;;0.93;;
9056;SDS011;4563;54.756;9.400;2022-08-21T14:25:58;5.55;;;1.00;;
9056;SDS011;4563;54.756;9.400;2022-08-21T14:28:29;7.28;;;0.98;;
9056;SDS011;4563;54.756;9.400;2022-08-21T14:30:59;4.75;;;0.98;;
9056;SDS011;4563;54.756;9.400;2022-08-21T14:33:38;7.38;;;1.30;;
9056;SDS011;4563;54.756;9.400;2022-08-21T14:36:05;3.80;;;1.00;;
9056;SDS011;4563;54.756;9.400;2022-08-21T14:38:34;4.22;;;1.30;;
9056;SDS011;4563;54.756;9.400;2022-08-21T14:41:03;4.47;;;1.17;;
9056;SDS011;4563;54.756;9.400;2022-08-21T14:43:36;3.03;;;0.80;;
9056;SDS011;4563;54.756;9.400;2022-08-21T14:46:03;4.50;;;1.17;;
9056;SDS011;4563;54.756;9.400;2022-08-21T14:48:30;4.50;;;1.02;;
9056;SDS011;4563;54.756;9.400;2022-08-21T14:50:56;4.93;;;1.05;;
9056;SDS011;4563;54.756;9.400;2022-08-21T14:53:23;2.30;;;0.90;;
9056;SDS011;4563;54.756;9.400;2022-08-21T14:55:50;3.88;;;0.93;;
9056;SDS011;4563;54.756;9.400;2022-08-21T14:58:32;5.40;;;1.00;;
9056;SDS011;4563;54.756;9.400;2022-08-21T15:01:04;2.30;;;1.00;;
9056;SDS011;4563;54.756;9.400;2022-08-21T15:03:31;7.40;;;1.05;;
9056;SDS011;4563;54.756;9.400;2022-08-21T15:05:59;3.45;;;0.95;;
9056;SDS011;4563;54.756;9.400;2022-08-21T15:08:26;3.28;;;0.80;;
9056;SDS011;4563;54.756;9.400;2022-08-21T15:10:53;2.88;;;1.27;;
9056;SDS011;4563;54.756;9.400;2022-08-21T15:13:21;10.27;;;1.33;;
9056;SDS011;4563;54.756;9.400;2022-08-21T15:15:50;4.65;;;0.90;;
9056;SDS011;4563;54.756;9.400;2022-08-21T15:18:18;3.05;;;0.95;;
9056;SDS011;4563;54.756;9.400;2022-08-21T15:20:45;4.50;;;1.02;;
9056;SDS011;4563;54.756;9.400;2022-08-21T15:23:12;3.72;;;1.00;;
9056;SDS011;4563;54.756;9.400;2022-08-21T15:25:40;4.53;;;1.17;;
9056;SDS011;4563;54.756;9.400;2022-08-21T15:28:08;6.93;;;1.00;;
9056;SDS011;4563;54.756;9.400;2022-08-21T15:30:35;4.38;;;1.00;;
9056;SDS011;4563;54.756;9.400;2022-08-21T15:33:05;5.03;;;1.08;;